createdAt,value
2022-09-26T00:01:25.562Z,12.10
2022-09-26T00:03:56.075Z,12.10
2022-09-26T00:06:23.417Z,12.10
2022-09-26T00:08:51.545Z,12.10
2022-09-26T00:11:27.565Z,12.10
2022-09-26T00:13:57.866Z,12.10
2022-09-26T00:16:25.207Z,12.10
2022-09-26T00:18:53.957Z,12.10
2022-09-26T00:21:21.696Z,12.10
2022-09-26T00:23:48.781Z,12.10
2022-09-26T00:26:17.714Z,12.00
2022-09-26T00:28:44.448Z,12.00
2022-09-26T00:31:18.328Z,12.00
2022-09-26T00:33:45.121Z,12.00
2022-09-26T00:36:11.977Z,12.00
2022-09-26T00:38:41.031Z,12.00
2022-09-26T00:41:08.456Z,12.00
2022-09-26T00:43:49.745Z,12.00
2022-09-26T00:46:39.280Z,12.00
2022-09-26T00:49:17.493Z,12.00
2022-09-26T00:51:48.198Z,12.00
2022-09-26T00:54:18.196Z,12.00
2022-09-26T00:56:48.972Z,12.00
2022-09-26T00:59:27.446Z,11.90
2022-09-26T01:01:57.893Z,12.00
2022-09-26T01:04:27.372Z,12.00
2022-09-26T01:06:56.898Z,12.00
2022-09-26T01:09:23.978Z,12.00
2022-09-26T01:11:50.665Z,12.00
2022-09-26T01:14:17.413Z,12.00
2022-09-26T01:16:47.637Z,12.00
2022-09-26T01:19:53.151Z,12.00
2022-09-26T01:22:56.237Z,12.00
2022-09-26T01:25:53.739Z,12.00
2022-09-26T01:28:48.423Z,11.90
2022-09-26T01:31:23.902Z,11.90
2022-09-26T01:33:56.511Z,11.90
2022-09-26T01:36:25.940Z,12.00
2022-09-26T01:38:58.115Z,11.90
2022-09-26T01:41:43.631Z,11.90
2022-09-26T01:44:16.345Z,11.90
2022-09-26T01:47:08.196Z,11.90
2022-09-26T01:49:47.323Z,11.90
2022-09-26T01:52:39.143Z,11.90
2022-09-26T01:55:26.066Z,11.80
2022-09-26T01:58:04.604Z,11.80
2022-09-26T02:00:32.762Z,11.80
2022-09-26T02:03:01.436Z,11.80
2022-09-26T02:05:40.260Z,11.80
2022-09-26T02:08:13.141Z,11.80
2022-09-26T02:10:46.649Z,11.80
2022-09-26T02:13:33.632Z,11.80
2022-09-26T02:16:08.984Z,11.80
2022-09-26T02:18:40.772Z,11.80
2022-09-26T02:21:16.013Z,11.80
2022-09-26T02:23:42.849Z,11.80
2022-09-26T02:26:09.985Z,11.80
2022-09-26T02:28:36.741Z,11.80
2022-09-26T02:31:05.929Z,11.80
2022-09-26T02:33:32.672Z,11.80
2022-09-26T02:35:59.430Z,11.80
2022-09-26T02:38:31.013Z,11.90
2022-09-26T02:41:12.431Z,11.80
2022-09-26T02:43:50.000Z,11.80
2022-09-26T02:46:51.811Z,11.80
2022-09-26T02:49:55.805Z,11.80
2022-09-26T02:52:25.303Z,11.80
2022-09-26T02:55:29.185Z,11.70
2022-09-26T02:58:20.222Z,11.70
2022-09-26T03:00:55.760Z,11.70
2022-09-26T03:03:25.426Z,11.70
2022-09-26T03:05:57.437Z,11.70
2022-09-26T03:08:30.709Z,11.70
2022-09-26T03:11:00.575Z,11.70
2022-09-26T03:13:28.311Z,11.70
2022-09-26T03:15:58.665Z,11.70
2022-09-26T03:18:32.342Z,11.70
2022-09-26T03:20:59.131Z,11.70
2022-09-26T03:23:27.260Z,11.70
2022-09-26T03:26:00.048Z,11.80
2022-09-26T03:28:27.283Z,11.80
2022-09-26T03:30:54.042Z,11.80
2022-09-26T03:33:21.124Z,11.80
2022-09-26T03:35:47.865Z,11.70
2022-09-26T03:38:14.822Z,11.70
2022-09-26T03:40:42.253Z,11.70
2022-09-26T03:43:10.045Z,11.70
2022-09-26T03:45:37.568Z,11.70
2022-09-26T03:48:04.848Z,11.80
2022-09-26T03:50:32.027Z,11.70
2022-09-26T03:52:58.871Z,11.70
2022-09-26T03:55:25.617Z,11.70
2022-09-26T03:57:52.563Z,11.70
2022-09-26T04:00:20.063Z,11.70
2022-09-26T04:02:46.850Z,11.70
2022-09-26T04:05:13.597Z,11.70
2022-09-26T04:07:40.255Z,11.70
2022-09-26T04:10:07.644Z,11.70
2022-09-26T04:12:34.324Z,11.70
2022-09-26T04:15:01.122Z,11.70
2022-09-26T04:17:29.128Z,11.70
2022-09-26T04:19:55.863Z,11.70
2022-09-26T04:22:22.608Z,11.70
2022-09-26T04:24:49.365Z,11.70
2022-09-26T04:27:16.090Z,11.60
2022-09-26T04:29:42.803Z,11.60
2022-09-26T04:32:09.621Z,11.70
2022-09-26T04:34:36.364Z,11.70
2022-09-26T04:37:03.074Z,11.70
2022-09-26T04:39:29.783Z,11.70
2022-09-26T04:41:56.451Z,11.70
2022-09-26T04:44:23.214Z,11.60
2022-09-26T04:46:50.117Z,11.70
2022-09-26T04:49:16.968Z,11.60
2022-09-26T04:51:43.686Z,11.60
2022-09-26T04:54:10.430Z,11.60
2022-09-26T04:56:37.136Z,11.60
2022-09-26T04:59:03.905Z,11.40
2022-09-26T05:01:30.856Z,11.50
2022-09-26T05:03:57.689Z,11.50
2022-09-26T05:06:24.525Z,11.40
2022-09-26T05:08:51.375Z,11.40
2022-09-26T05:11:19.139Z,11.40
2022-09-26T05:13:50.116Z,11.30
2022-09-26T05:16:19.917Z,11.40
2022-09-26T05:18:51.843Z,11.40
2022-09-26T05:21:18.793Z,11.40
2022-09-26T05:23:45.630Z,11.30
2022-09-26T05:26:15.158Z,11.30
2022-09-26T05:28:41.842Z,11.20
2022-09-26T05:31:08.720Z,11.20
2022-09-26T05:33:35.406Z,11.20
2022-09-26T05:36:02.212Z,11.20
2022-09-26T05:38:28.888Z,11.20
2022-09-26T05:40:55.642Z,11.20
2022-09-26T05:43:24.219Z,11.30
2022-09-26T05:45:51.053Z,11.30
2022-09-26T05:48:17.803Z,11.30
2022-09-26T05:50:44.731Z,11.30
2022-09-26T05:53:11.575Z,11.30
2022-09-26T05:55:38.394Z,11.30
2022-09-26T05:58:05.148Z,11.40
2022-09-26T06:00:31.938Z,11.40
2022-09-26T06:03:00.577Z,11.40
2022-09-26T06:05:27.582Z,11.40
2022-09-26T06:07:54.357Z,11.50
2022-09-26T06:10:21.377Z,11.50
2022-09-26T06:12:51.069Z,11.50
2022-09-26T06:15:18.326Z,11.40
2022-09-26T06:17:45.617Z,11.30
2022-09-26T06:20:12.359Z,11.40
2022-09-26T06:22:41.226Z,11.30
2022-09-26T06:25:11.160Z,11.50
2022-09-26T06:27:38.135Z,11.40
2022-09-26T06:30:08.842Z,11.50
2022-09-26T06:32:35.492Z,11.50
2022-09-26T06:35:02.830Z,11.40
2022-09-26T06:37:29.718Z,11.50
2022-09-26T06:39:59.437Z,11.50
2022-09-26T06:42:26.606Z,11.60
2022-09-26T06:44:53.268Z,11.60
2022-09-26T06:47:20.059Z,11.50
2022-09-26T06:49:46.819Z,11.60
2022-09-26T06:52:13.518Z,11.60
2022-09-26T06:54:40.505Z,11.70
2022-09-26T06:57:10.489Z,11.70
2022-09-26T06:59:39.665Z,11.70
2022-09-26T07:02:06.600Z,11.80
2022-09-26T07:04:33.377Z,11.70
2022-09-26T07:07:00.073Z,11.70
2022-09-26T07:09:26.873Z,11.70
2022-09-26T07:12:14.256Z,11.70
2022-09-26T07:14:40.860Z,11.60
2022-09-26T07:17:07.658Z,11.70
2022-09-26T07:19:34.351Z,11.70
2022-09-26T07:22:01.055Z,11.70
2022-09-26T07:24:27.726Z,11.90
2022-09-26T07:26:54.414Z,12.10
2022-09-26T07:29:21.150Z,12.10
2022-09-26T07:31:47.955Z,12.20
2022-09-26T07:34:18.042Z,12.30
2022-09-26T07:36:45.257Z,12.30
2022-09-26T07:39:12.080Z,12.20
2022-09-26T07:41:38.884Z,12.30
2022-09-26T07:46:52.377Z,12.20
2022-09-26T07:49:19.198Z,12.30
2022-09-26T07:51:46.013Z,12.40
2022-09-26T07:54:12.792Z,12.40
2022-09-26T07:56:39.666Z,12.40
2022-09-26T07:59:06.407Z,12.60
2022-09-26T08:01:33.143Z,12.70
2022-09-26T08:04:00.076Z,12.70
2022-09-26T08:06:26.760Z,12.70
2022-09-26T08:08:56.325Z,12.80
2022-09-26T08:11:23.348Z,12.80
2022-09-26T08:13:50.418Z,12.80
2022-09-26T08:16:17.597Z,12.70
2022-09-26T08:18:44.300Z,12.60
2022-09-26T08:21:11.099Z,12.50
2022-09-26T08:23:37.918Z,12.40
2022-09-26T08:26:06.584Z,12.50
2022-09-26T08:28:34.633Z,12.50
2022-09-26T08:31:01.423Z,12.50
2022-09-26T08:33:28.601Z,12.60
2022-09-26T08:35:55.473Z,12.50
2022-09-26T08:38:22.163Z,12.60
2022-09-26T08:40:57.872Z,12.60
2022-09-26T08:44:09.697Z,12.60
2022-09-26T08:46:58.459Z,12.70
2022-09-26T08:49:38.772Z,12.70
2022-09-26T08:52:28.254Z,12.70
2022-09-26T08:54:58.001Z,12.70
2022-09-26T08:57:33.125Z,12.70
2022-09-26T09:00:04.856Z,12.60
2022-09-26T09:02:45.341Z,12.60
2022-09-26T09:05:28.161Z,12.60
2022-09-26T09:07:57.227Z,12.70
2022-09-26T09:10:52.626Z,12.60
2022-09-26T09:13:42.463Z,12.70
2022-09-26T09:16:23.261Z,12.70
2022-09-26T09:19:12.336Z,12.80
2022-09-26T09:21:49.535Z,12.90
2022-09-26T09:24:44.322Z,13.00
2022-09-26T09:30:34.023Z,13.80
2022-09-26T09:33:33.767Z,13.90
2022-09-26T09:36:07.796Z,13.80
2022-09-26T09:38:38.512Z,13.80
2022-09-26T09:41:13.443Z,13.60
2022-09-26T09:44:03.100Z,13.60
2022-09-26T09:46:37.981Z,13.60
2022-09-26T09:49:20.006Z,13.50
2022-09-26T09:52:02.719Z,13.40
2022-09-26T09:54:59.887Z,13.40
2022-09-26T09:57:48.836Z,13.30
2022-09-26T10:00:18.269Z,13.40
2022-09-26T10:03:03.100Z,13.50
2022-09-26T10:05:40.135Z,13.50
2022-09-26T10:08:21.842Z,13.40
2022-09-26T10:10:54.150Z,13.30
2022-09-26T10:13:24.346Z,13.40
2022-09-26T10:16:04.696Z,13.40
2022-09-26T10:18:31.886Z,13.20
2022-09-26T10:21:07.644Z,13.20
2022-09-26T10:23:42.542Z,13.10
2022-09-26T10:26:11.435Z,13.20
2022-09-26T10:28:49.362Z,13.20
2022-09-26T10:31:43.226Z,13.40
2022-09-26T10:34:29.419Z,13.80
2022-09-26T10:36:56.849Z,13.90
2022-09-26T10:39:25.747Z,13.90
2022-09-26T10:41:58.355Z,13.90
2022-09-26T10:44:36.751Z,13.90
2022-09-26T10:47:05.351Z,13.90
2022-09-26T10:49:40.216Z,13.90
2022-09-26T10:52:30.623Z,13.80
2022-09-26T10:55:06.431Z,13.90
2022-09-26T10:57:55.674Z,14.30
2022-09-26T11:00:34.403Z,14.70
2022-09-26T11:03:01.326Z,15.00
2022-09-26T11:05:27.974Z,15.00
2022-09-26T11:07:57.103Z,14.80
2022-09-26T11:10:27.349Z,14.60
2022-09-26T11:13:16.729Z,14.50
2022-09-26T11:16:14.040Z,14.20
2022-09-26T11:19:02.756Z,14.10
2022-09-26T11:22:08.590Z,13.90
2022-09-26T11:24:47.676Z,13.80
2022-09-26T11:27:47.993Z,13.50
2022-09-26T11:30:17.690Z,13.50
2022-09-26T11:32:47.478Z,13.50
2022-09-26T11:35:21.831Z,13.10
2022-09-26T11:38:26.012Z,12.90
2022-09-26T11:41:33.985Z,12.90
2022-09-26T11:44:24.812Z,12.70
2022-09-26T11:47:25.486Z,12.70
2022-09-26T11:50:10.917Z,12.70
2022-09-26T11:52:56.045Z,12.80
2022-09-26T11:55:28.494Z,12.90
2022-09-26T11:58:35.240Z,13.00
2022-09-26T12:01:23.677Z,13.00
2022-09-26T12:04:13.857Z,13.10
2022-09-26T12:07:01.411Z,13.10
2022-09-26T12:09:52.616Z,13.00
2022-09-26T12:12:28.528Z,13.10
2022-09-26T12:15:21.640Z,13.50
2022-09-26T12:17:54.276Z,13.80
2022-09-26T12:20:34.904Z,14.30
2022-09-26T12:23:33.851Z,14.40
2022-09-26T12:26:28.517Z,14.50
2022-09-26T12:29:00.644Z,14.70
2022-09-26T12:31:30.256Z,15.10
2022-09-26T12:34:27.310Z,15.30
2022-09-26T12:37:14.712Z,15.40
2022-09-26T12:40:03.062Z,15.60
2022-09-26T12:42:51.345Z,15.80
2022-09-26T12:45:59.367Z,15.70
2022-09-26T12:48:57.823Z,15.90
2022-09-26T12:51:39.147Z,15.80
2022-09-26T12:54:31.064Z,15.70
2022-09-26T12:57:06.608Z,15.60
2022-09-26T13:00:12.219Z,15.80
2022-09-26T13:02:57.631Z,16.00
2022-09-26T13:05:44.056Z,16.20
2022-09-26T13:08:43.142Z,16.20
2022-09-26T13:11:34.083Z,16.30
2022-09-26T13:14:00.635Z,16.40
2022-09-26T13:17:01.593Z,16.50
2022-09-26T13:19:30.492Z,16.40
2022-09-26T13:22:03.950Z,16.50
2022-09-26T13:24:44.303Z,16.60
2022-09-26T13:27:22.132Z,16.60
2022-09-26T13:30:00.459Z,16.80
2022-09-26T13:32:36.994Z,16.90
2022-09-26T13:35:22.578Z,16.80
2022-09-26T13:38:18.208Z,16.90
2022-09-26T13:40:57.854Z,17.00
2022-09-26T13:44:03.548Z,17.10
2022-09-26T13:47:17.802Z,17.00
2022-09-26T13:49:51.664Z,16.90
2022-09-26T13:52:26.190Z,16.90
2022-09-26T13:54:52.669Z,17.00
2022-09-26T13:57:39.214Z,17.00
2022-09-26T14:00:28.515Z,17.20
2022-09-26T14:03:07.469Z,17.20
2022-09-26T14:05:43.497Z,17.40
2022-09-26T14:08:25.195Z,17.10
2022-09-26T14:11:06.828Z,17.10
2022-09-26T14:13:37.619Z,17.00
2022-09-26T14:16:25.510Z,16.90
2022-09-26T14:19:10.903Z,16.80
2022-09-26T14:21:41.640Z,16.70
2022-09-26T14:24:20.352Z,16.90
2022-09-26T14:27:09.905Z,16.90
2022-09-26T14:29:49.075Z,16.90
2022-09-26T14:32:25.761Z,16.70
2022-09-26T14:35:01.845Z,16.60
2022-09-26T14:37:33.304Z,16.50
2022-09-26T14:39:59.831Z,16.50
2022-09-26T14:42:39.002Z,16.40
2022-09-26T14:45:18.085Z,16.20
2022-09-26T14:47:48.749Z,16.10
2022-09-26T14:50:20.474Z,16.00
2022-09-26T14:53:00.034Z,16.00
2022-09-26T14:55:28.567Z,16.00
2022-09-26T14:58:15.795Z,15.90
2022-09-26T15:00:46.264Z,15.90
2022-09-26T15:03:16.372Z,15.90
2022-09-26T15:05:44.819Z,15.80
2022-09-26T15:08:24.500Z,15.80
2022-09-26T15:10:52.847Z,15.80
2022-09-26T15:13:25.365Z,15.80
2022-09-26T15:16:04.027Z,15.90
2022-09-26T15:18:45.180Z,15.80
2022-09-26T15:21:51.796Z,15.80
2022-09-26T15:24:35.621Z,15.80
2022-09-26T15:27:14.292Z,15.70
2022-09-26T15:30:15.741Z,15.60
2022-09-26T15:32:42.655Z,15.40
2022-09-26T15:35:12.486Z,15.40
2022-09-26T15:37:39.337Z,15.30
2022-09-26T15:40:21.052Z,15.30
2022-09-26T15:42:47.671Z,15.20
2022-09-26T15:45:23.332Z,15.30
2022-09-26T15:47:50.024Z,15.20
2022-09-26T15:50:20.955Z,15.30
2022-09-26T15:52:58.651Z,15.30
2022-09-26T15:55:29.088Z,15.30
2022-09-26T15:57:58.541Z,15.20
2022-09-26T16:00:25.208Z,15.20
2022-09-26T16:02:52.032Z,15.20
2022-09-26T16:05:21.046Z,15.10
2022-09-26T16:07:50.050Z,15.10
2022-09-26T16:10:30.258Z,15.10
2022-09-26T16:12:57.686Z,14.90
2022-09-26T16:15:29.711Z,14.90
2022-09-26T16:17:58.245Z,14.80
2022-09-26T16:20:28.471Z,14.70
2022-09-26T16:23:05.289Z,14.60
2022-09-26T16:25:32.398Z,14.50
2022-09-26T16:28:00.258Z,14.40
2022-09-26T16:30:26.817Z,14.40
2022-09-26T16:33:02.573Z,14.30
2022-09-26T16:35:30.940Z,14.20
2022-09-26T16:38:03.252Z,14.10
2022-09-26T16:40:32.148Z,14.10
2022-09-26T16:43:26.685Z,14.10
2022-09-26T16:46:08.419Z,14.00
2022-09-26T16:48:42.654Z,14.00
2022-09-26T16:51:30.887Z,14.00
2022-09-26T16:54:13.285Z,13.90
2022-09-26T16:56:41.562Z,13.90
2022-09-26T16:59:18.262Z,13.80
2022-09-26T17:01:51.219Z,13.80
2022-09-26T17:04:19.899Z,13.70
2022-09-26T17:06:47.337Z,13.60
2022-09-26T17:09:19.595Z,13.50
2022-09-26T17:11:48.132Z,13.40
2022-09-26T17:14:18.610Z,13.30
2022-09-26T17:16:47.972Z,13.30
2022-09-26T17:19:16.868Z,13.20
2022-09-26T17:21:43.945Z,13.10
2022-09-26T17:24:17.029Z,13.00
2022-09-26T17:26:54.636Z,12.80
2022-09-26T17:29:26.399Z,12.70
2022-09-26T17:31:54.918Z,12.70
2022-09-26T17:34:23.323Z,12.50
2022-09-26T17:36:50.329Z,12.50
2022-09-26T17:39:18.235Z,12.40
2022-09-26T17:41:44.921Z,12.40
2022-09-26T17:44:11.621Z,12.50
2022-09-26T17:46:38.895Z,12.50
2022-09-26T17:49:10.676Z,12.40
2022-09-26T17:51:37.274Z,12.30
2022-09-26T17:54:05.069Z,12.30
2022-09-26T17:56:31.654Z,12.30
2022-09-26T17:58:58.634Z,12.30
2022-09-26T18:01:28.792Z,12.20
2022-09-26T18:03:58.769Z,12.10
2022-09-26T18:06:28.588Z,12.10
2022-09-26T18:08:55.203Z,12.10
2022-09-26T18:11:21.824Z,12.10
2022-09-26T18:13:52.205Z,12.20
2022-09-26T18:16:21.173Z,12.10
2022-09-26T18:18:47.831Z,12.20
2022-09-26T18:21:16.336Z,12.20
2022-09-26T18:23:45.203Z,12.10
2022-09-26T18:26:33.281Z,12.10
2022-09-26T18:29:03.557Z,12.20
2022-09-26T18:31:32.922Z,12.20
2022-09-26T18:33:59.919Z,12.20
2022-09-26T18:36:32.760Z,12.20
2022-09-26T18:38:59.880Z,12.20
2022-09-26T18:41:28.036Z,12.20
2022-09-26T18:43:57.078Z,12.30
2022-09-26T18:46:24.071Z,12.20
2022-09-26T18:48:54.275Z,12.20
2022-09-26T18:51:20.942Z,12.20
2022-09-26T18:53:47.729Z,12.20
2022-09-26T18:56:14.669Z,12.20
2022-09-26T18:58:41.287Z,12.20
2022-09-26T19:01:32.251Z,12.30
2022-09-26T19:04:02.388Z,12.30
2022-09-26T19:06:36.505Z,12.30
2022-09-26T19:09:05.518Z,12.30
2022-09-26T19:11:32.616Z,12.30
2022-09-26T19:14:06.391Z,12.20
2022-09-26T19:16:32.995Z,12.30
2022-09-26T19:18:59.590Z,12.30
2022-09-26T19:21:32.452Z,12.30
2022-09-26T19:24:03.623Z,12.30
2022-09-26T19:26:36.348Z,12.40
2022-09-26T19:29:10.021Z,12.30
2022-09-26T19:31:39.117Z,12.30
2022-09-26T19:34:05.787Z,12.30
2022-09-26T19:36:32.384Z,12.20
2022-09-26T19:38:58.977Z,12.30
2022-09-26T19:41:25.586Z,12.20
2022-09-26T19:43:52.214Z,12.20
2022-09-26T19:46:25.695Z,12.10
2022-09-26T19:48:52.481Z,12.20
2022-09-26T19:51:20.443Z,12.10
2022-09-26T19:53:47.099Z,12.10
2022-09-26T19:56:13.740Z,12.10
2022-09-26T19:58:40.357Z,12.10
2022-09-26T20:01:15.205Z,12.10
2022-09-26T20:03:42.363Z,12.10
2022-09-26T20:06:23.887Z,12.10
2022-09-26T20:08:53.231Z,12.10
2022-09-26T20:11:22.014Z,12.00
2022-09-26T20:13:48.578Z,11.90
2022-09-26T20:16:15.259Z,12.00
2022-09-26T20:18:41.849Z,12.00
2022-09-26T20:21:10.320Z,12.00
2022-09-26T20:23:36.926Z,12.00
2022-09-26T20:26:03.556Z,12.00
2022-09-26T20:28:30.155Z,12.00
2022-09-26T20:30:56.861Z,12.00
2022-09-26T20:33:25.578Z,12.00
2022-09-26T20:36:03.113Z,12.00
2022-09-26T20:38:48.282Z,12.00
2022-09-26T20:41:32.846Z,12.10
2022-09-26T20:44:05.317Z,12.00
2022-09-26T20:46:35.632Z,12.10
2022-09-26T20:49:05.616Z,12.10
2022-09-26T20:51:32.536Z,12.00
2022-09-26T20:53:59.099Z,11.90
2022-09-26T20:56:25.684Z,12.00
2022-09-26T20:58:52.326Z,11.90
2022-09-26T21:01:21.089Z,11.90
2022-09-26T21:03:53.472Z,11.90
2022-09-26T21:06:22.115Z,11.90
2022-09-26T21:08:49.425Z,11.90
2022-09-26T21:11:18.895Z,11.90
2022-09-26T21:13:45.749Z,11.90
2022-09-26T21:16:17.974Z,11.80
2022-09-26T21:18:48.190Z,11.80
2022-09-26T21:21:26.628Z,11.90
2022-09-26T21:23:53.985Z,11.80
2022-09-26T21:26:22.975Z,11.80
2022-09-26T21:28:51.116Z,11.90
2022-09-26T21:31:33.392Z,11.80
2022-09-26T21:34:00.878Z,11.80
2022-09-26T21:36:35.200Z,11.90
2022-09-26T21:39:02.040Z,11.80
2022-09-26T21:41:29.101Z,11.70
2022-09-26T21:44:11.338Z,11.70
2022-09-26T21:46:37.928Z,11.70
2022-09-26T21:49:04.526Z,11.80
2022-09-26T21:51:31.682Z,11.70
2022-09-26T21:54:04.108Z,11.70
2022-09-26T21:56:37.332Z,11.70
2022-09-26T21:59:06.175Z,11.70
2022-09-26T22:01:32.825Z,11.70
2022-09-26T22:03:59.462Z,11.70
2022-09-26T22:06:26.050Z,11.70
2022-09-26T22:08:52.607Z,11.80
2022-09-26T22:11:19.178Z,11.70
2022-09-26T22:13:45.765Z,11.70
2022-09-26T22:16:13.307Z,11.70
2022-09-26T22:18:40.225Z,11.70
2022-09-26T22:21:08.328Z,11.70
2022-09-26T22:23:36.285Z,11.70
2022-09-26T22:26:03.402Z,11.70
2022-09-26T22:28:30.211Z,11.60
2022-09-26T22:31:01.354Z,11.70
2022-09-26T22:33:28.109Z,11.70
2022-09-26T22:35:54.664Z,11.70
2022-09-26T22:38:21.317Z,11.70
2022-09-26T22:41:02.082Z,11.80
2022-09-26T22:43:29.843Z,11.80
2022-09-26T22:46:08.236Z,11.80
2022-09-26T22:48:37.342Z,11.80
2022-09-26T22:51:05.002Z,11.80
2022-09-26T22:53:33.311Z,11.80
2022-09-26T22:56:00.136Z,11.80
2022-09-26T22:58:26.737Z,11.70
2022-09-26T23:00:53.348Z,11.80
2022-09-26T23:03:19.974Z,11.80
2022-09-26T23:05:47.578Z,11.90
2022-09-26T23:08:14.128Z,11.90
2022-09-26T23:10:48.376Z,11.90
2022-09-26T23:13:14.953Z,11.80
2022-09-26T23:15:41.519Z,11.90
2022-09-26T23:18:08.080Z,11.90
2022-09-26T23:20:37.332Z,11.90
2022-09-26T23:23:03.880Z,11.80
2022-09-26T23:25:30.451Z,11.70
2022-09-26T23:27:57.023Z,11.70
2022-09-26T23:30:23.697Z,11.70
2022-09-26T23:32:50.287Z,11.60
2022-09-26T23:35:16.856Z,11.60
2022-09-26T23:37:43.403Z,11.60
2022-09-26T23:40:10.273Z,11.50
2022-09-26T23:42:36.863Z,11.40
2022-09-26T23:45:04.044Z,11.40
2022-09-26T23:47:30.672Z,11.40
2022-09-26T23:49:57.224Z,11.30
2022-09-26T23:52:23.798Z,11.40
2022-09-26T23:54:50.347Z,11.30
2022-09-26T23:57:16.903Z,11.30
2022-09-26T23:59:43.481Z,11.30
